Terminal Aerodrome Forecast
Issued by NWS

Home | Current Version | Previous Version | Graphics & Text | Print | Product List | Glossary On
Versions: 1 2 3 4 5 6 7 8 9 10 11 12 13 14 15
000
FTUS43 KTOP 061128
TAFMHK
TAF
KMHK 061128Z 0612/0712 16012KT P6SM BKN250
     FM061500 19014G20KT P6SM SCT040 BKN120
     FM061900 29010KT P6SM VCTS BKN040CB
      TEMPO 0621/0701 4SM TSRA OVC030CB
     FM070100 34013KT 5SM -SHRA VCTS OVC025CB
     FM070400 01010KT 5SM -SHRA BR VCTS OVC030CB=

USA.gov is the U.S. government's official web portal to all federal, state and local government web resources and services.